Time;durP1;ratioP1;P1;durP2;ratioP2;P2;SDS_P1;SDS_P2;PMS_P1;PMS_P2;Temp;Humidity;BMP_temperature;BMP_pressure;BME280_temperature;BME280_humidity;BME280_pressure;Samples;Min_cycle;Max_cycle;Signal;HPM_P1;HPM_P2
2022/08/18 00:00:43;;;;;;;16.75;12.78;;;;;;;21.07;84.24;100150.40;1784246;80;21141;-91
2022/08/18 00:03:10;;;;;;;12.88;10.93;;;;;;;21.08;84.50;100153.41;1784226;80;21132;-92
2022/08/18 00:05:37;;;;;;;18.55;11.97;;;;;;;21.08;84.54;100155.58;1784244;80;20967;-92
2022/08/18 00:08:05;;;;;;;13.35;11.28;;;;;;;21.09;84.77;100149.73;1784202;80;20931;-92
2022/08/18 00:10:31;;;;;;;13.08;11.78;;;;;;;21.10;84.71;100150.08;1784112;80;20920;-92
2022/08/18 00:12:58;;;;;;;17.12;12.50;;;;;;;21.11;84.69;100159.73;1784141;80;21037;-93
2022/08/18 00:15:25;;;;;;;13.13;11.80;;;;;;;21.09;84.53;100159.06;1784148;80;21270;-92
2022/08/18 00:17:52;;;;;;;15.63;10.98;;;;;;;21.06;84.46;100150.09;1784263;80;20868;-93
2022/08/18 00:20:22;;;;;;;13.10;11.45;;;;;;;21.03;84.22;100151.27;1784209;80;20932;-92
2022/08/18 00:22:49;;;;;;;13.58;12.15;;;;;;;21.00;83.90;100154.25;1784392;80;21421;-92
2022/08/18 00:25:18;;;;;;;15.00;11.95;;;;;;;20.98;83.82;100154.92;1784092;80;21515;-94
2022/08/18 00:27:44;;;;;;;13.78;12.50;;;;;;;20.96;83.79;100156.11;1784224;80;21182;-92
2022/08/18 00:30:15;;;;;;;14.38;10.85;;;;;;;20.95;83.99;100156.61;1784153;80;20920;-93
2022/08/18 00:32:50;;;;;;;12.63;11.20;;;;;;;20.94;84.15;100154.11;1784096;80;21353;-92
2022/08/18 00:35:26;;;;;;;13.13;11.10;;;;;;;20.91;84.34;100153.95;1784559;80;20947;-94
2022/08/18 00:37:54;;;;;;;12.25;11.12;;;;;;;20.87;84.43;100149.45;1784918;80;20920;-93
2022/08/18 00:40:27;;;;;;;13.32;11.45;;;;;;;20.84;84.36;100148.47;1784897;80;21317;-92
2022/08/18 00:42:58;;;;;;;13.95;11.68;;;;;;;20.81;84.37;100148.83;1784698;80;20892;-93
2022/08/18 00:45:31;;;;;;;13.60;11.50;;;;;;;20.79;84.53;100140.67;1784311;80;20840;-92
2022/08/18 00:48:00;;;;;;;13.75;11.63;;;;;;;20.76;84.70;100149.81;1784213;80;20991;-91
2022/08/18 00:50:34;;;;;;;15.58;12.58;;;;;;;20.74;84.81;100144.33;1784648;80;21389;-91
2022/08/18 00:53:18;;;;;;;14.75;12.70;;;;;;;20.72;84.95;100147.66;1786715;79;21846;-93
2022/08/18 00:55:47;;;;;;;13.10;10.72;;;;;;;20.69;85.01;100139.00;1773087;78;21181;-93
2022/08/18 00:58:22;;;;;;;14.73;11.63;;;;;;;20.66;85.13;100134.02;1786367;78;20955;-93
2022/08/18 01:00:49;;;;;;;16.32;11.10;;;;;;;20.62;85.10;100135.36;1784865;78;20967;-94
2022/08/18 01:03:18;;;;;;;16.87;11.35;;;;;;;20.58;85.09;100134.03;1784326;80;21302;-93
2022/08/18 01:05:59;;;;;;;15.78;11.30;;;;;;;20.52;85.19;100136.50;1784273;80;21164;-93
2022/08/18 01:08:28;;;;;;;11.05;9.73;;;;;;;20.47;85.11;100133.02;1784199;80;20880;-93
2022/08/18 01:10:54;;;;;;;12.40;10.25;;;;;;;20.46;84.96;100135.36;1782690;80;21050;-94
2022/08/18 01:13:27;;;;;;;14.18;10.08;;;;;;;20.46;84.75;100137.52;1784035;80;20969;-94
2022/08/18 01:15:54;;;;;;;12.40;11.15;;;;;;;20.47;84.82;100142.34;1784306;80;20884;-91
2022/08/18 01:24:11;;;;;;;10.40;9.05;;;;;;;20.54;85.37;100135.33;1761251;80;20967;-91
2022/08/18 01:26:40;;;;;;;10.18;9.35;;;;;;;20.56;85.27;100144.49;1786039;80;20999;-92
2022/08/18 01:29:10;;;;;;;9.93;9.03;;;;;;;20.58;85.45;100146.02;1784457;80;20983;-93
2022/08/18 01:31:41;;;;;;;11.43;9.90;;;;;;;20.59;85.17;100142.88;1784192;80;21197;-93
2022/08/18 01:34:09;;;;;;;13.70;12.30;;;;;;;20.59;85.18;100146.36;1784232;80;20900;-91
2022/08/18 01:36:39;;;;;;;13.75;11.05;;;;;;;20.61;85.43;100139.52;1784475;80;20923;-92
2022/08/18 01:39:08;;;;;;;12.63;10.20;;;;;;;20.63;85.50;100146.84;1754078;80;20900;-90
2022/08/18 01:41:35;;;;;;;12.10;10.18;;;;;;;20.64;85.47;100144.52;1785478;80;20923;-91
2022/08/18 01:44:03;;;;;;;12.03;10.80;;;;;;;20.64;85.40;100144.52;1784679;80;21448;-92
2022/08/18 01:46:32;;;;;;;17.75;10.28;;;;;;;20.65;85.47;100148.84;1784130;80;20935;-91
2022/08/18 01:49:00;;;;;;;17.77;10.60;;;;;;;20.64;85.41;100148.52;1783913;80;20931;-91
2022/08/18 01:51:28;;;;;;;11.90;10.60;;;;;;;20.62;85.20;100148.68;1784150;80;20856;-91
2022/08/18 01:53:55;;;;;;;14.85;11.22;;;;;;;20.61;84.98;100152.84;1784194;80;21456;-92
2022/08/18 01:56:22;;;;;;;11.78;10.58;;;;;;;20.59;84.89;100153.53;1784046;80;21250;-92
2022/08/18 01:58:49;;;;;;;13.78;9.88;;;;;;;20.57;84.82;100152.87;1784148;80;21405;-92
2022/08/18 02:01:16;;;;;;;12.63;11.43;;;;;;;20.55;84.71;100151.66;1784261;80;20935;-92
2022/08/18 02:03:47;;;;;;;15.50;11.00;;;;;;;20.50;84.74;100142.84;1784258;80;21026;-93
2022/08/18 02:06:17;;;;;;;19.57;16.77;;;;;;;20.46;84.77;100142.84;1784377;80;21385;-91
2022/08/18 02:08:45;;;;;;;12.80;11.18;;;;;;;20.43;84.76;100132.54;1784242;80;20901;-91
2022/08/18 02:11:12;;;;;;;12.78;11.65;;;;;;;20.41;84.80;100136.34;1784355;80;20884;-92
2022/08/18 02:13:40;;;;;;;14.47;11.60;;;;;;;20.40;85.01;100141.35;1785374;80;20916;-90
2022/08/18 02:16:07;;;;;;;13.35;11.97;;;;;;;20.41;85.26;100135.87;1786574;78;20963;-92
2022/08/18 02:18:35;;;;;;;14.50;12.47;;;;;;;20.42;85.44;100134.86;1786861;78;20889;-91
2022/08/18 02:21:09;;;;;;;14.45;13.13;;;;;;;20.45;85.81;100131.87;1786879;80;21140;-91
2022/08/18 02:23:36;;;;;;;15.50;12.05;;;;;;;20.49;86.26;100127.02;1786071;79;28188;-93
2022/08/18 02:26:06;;;;;;;14.63;11.57;;;;;;;20.51;86.43;100130.35;1784385;80;21438;-93
2022/08/18 02:28:32;;;;;;;12.25;10.98;;;;;;;20.54;86.39;100134.00;1784477;80;20905;-93
2022/08/18 02:31:07;;;;;;;13.10;11.25;;;;;;;20.55;86.44;100135.67;1784730;80;21492;-92
2022/08/18 02:33:34;;;;;;;13.68;10.88;;;;;;;20.55;86.28;100136.19;1784658;80;21874;-92
2022/08/18 02:36:01;;;;;;;13.48;11.33;;;;;;;20.53;86.17;100136.34;1784495;80;20932;-92
2022/08/18 02:38:29;;;;;;;15.65;12.75;;;;;;;20.52;86.23;100135.17;1784851;80;20979;-92
2022/08/18 02:40:57;;;;;;;12.80;10.95;;;;;;;20.50;86.64;100138.85;1784570;80;20849;-93
2022/08/18 02:43:24;;;;;;;16.02;12.00;;;;;;;20.52;86.96;100137.36;1785304;80;20912;-94
2022/08/18 02:45:51;;;;;;;13.40;12.10;;;;;;;20.54;87.05;100138.50;1784622;80;21214;-95
2022/08/18 02:48:35;;;;;;;12.55;11.45;;;;;;;20.55;87.12;100135.67;1784151;80;20971;-92
2022/08/18 02:51:11;;;;;;;16.90;13.35;;;;;;;20.55;87.15;100138.34;1777173;80;20973;-92
2022/08/18 02:53:39;;;;;;;12.93;11.63;;;;;;;20.56;87.32;100135.17;1777428;80;21039;-92
2022/08/18 02:58:49;;;;;;;13.75;11.40;;;;;;;20.58;86.96;100149.19;1778222;79;21196;-91
2022/08/18 03:01:16;;;;;;;12.73;11.43;;;;;;;20.57;86.59;100151.53;1778899;79;21133;-91
2022/08/18 03:03:43;;;;;;;18.12;13.25;;;;;;;20.56;86.35;100154.64;1779223;79;20861;-92
2022/08/18 03:06:10;;;;;;;13.85;12.55;;;;;;;20.56;86.36;100151.16;1777556;79;21460;-92
2022/08/18 03:08:37;;;;;;;16.20;12.47;;;;;;;20.54;86.42;100145.98;1776587;80;21220;-93
2022/08/18 03:11:04;;;;;;;14.55;12.25;;;;;;;20.56;86.61;100148.48;1776260;80;21146;-94
2022/08/18 03:13:32;;;;;;;16.00;13.05;;;;;;;20.56;86.94;100147.98;1755011;80;20948;-93
2022/08/18 03:15:58;;;;;;;17.37;13.78;;;;;;;20.57;87.17;100151.03;1777247;80;20920;-93
2022/08/18 03:18:25;;;;;;;23.22;14.83;;;;;;;20.59;87.55;100150.87;1777176;80;21003;-92
2022/08/18 03:20:53;;;;;;;17.55;13.80;;;;;;;20.61;87.72;100145.70;1777140;80;21034;-92
2022/08/18 03:23:20;;;;;;;16.10;13.72;;;;;;;20.65;87.81;100151.02;1777137;80;21229;-91
2022/08/18 03:25:48;;;;;;;22.00;15.03;;;;;;;20.69;87.89;100148.33;1776217;80;21362;-91
2022/08/18 03:28:15;;;;;;;13.62;12.18;;;;;;;20.73;87.99;100149.34;1776469;80;20984;-91
2022/08/18 03:30:42;;;;;;;17.98;14.15;;;;;;;20.76;88.05;100147.66;1776147;80;20900;-92
2022/08/18 03:33:09;;;;;;;15.43;13.18;;;;;;;20.80;87.98;100146.32;1776207;80;20959;-92
2022/08/18 03:35:36;;;;;;;21.12;13.00;;;;;;;20.85;87.91;100146.63;1776523;80;21149;-94
2022/08/18 03:38:04;;;;;;;15.25;13.78;;;;;;;20.87;87.91;100140.63;1777279;80;20880;-93
2022/08/18 03:40:31;;;;;;;15.28;13.68;;;;;;;20.90;87.93;100151.80;1777101;80;20983;-91
2022/08/18 03:42:58;;;;;;;15.35;13.80;;;;;;;20.96;88.03;100152.93;1776901;80;20885;-92
2022/08/18 03:45:27;;;;;;;16.75;14.87;;;;;;;21.02;88.19;100160.25;1754833;80;20909;-92
2022/08/18 03:47:53;;;;;;;17.42;14.18;;;;;;;21.09;88.46;100151.89;1777172;80;22098;-93
2022/08/18 03:50:20;;;;;;;15.43;13.88;;;;;;;21.18;88.50;100155.87;1784026;80;20849;-93
2022/08/18 03:52:47;;;;;;;16.30;14.35;;;;;;;21.25;88.51;100156.84;1786537;79;20975;-92
2022/08/18 03:55:15;;;;;;;15.68;13.85;;;;;;;21.33;88.65;100159.48;1786514;78;20955;-93
2022/08/18 03:57:44;;;;;;;17.42;14.18;;;;;;;21.41;88.47;100159.95;1786415;78;21283;-92
2022/08/18 04:00:13;;;;;;;14.87;13.35;;;;;;;21.48;88.27;100160.95;1786696;78;20993;-90
2022/08/18 04:02:40;;;;;;;18.30;13.83;;;;;;;21.55;88.05;100160.57;1786664;80;20982;-92
2022/08/18 04:05:10;;;;;;;14.53;12.65;;;;;;;21.61;87.89;100160.36;1786748;80;20939;-93
2022/08/18 04:07:37;;;;;;;15.30;13.80;;;;;;;21.66;87.84;100160.17;1786207;80;20924;-93
2022/08/18 04:10:04;;;;;;;18.45;14.60;;;;;;;21.75;87.92;100158.80;1754530;80;20896;-92
2022/08/18 04:12:32;;;;;;;16.48;14.73;;;;;;;21.82;87.77;100160.58;1785033;80;21156;-93
2022/08/18 04:14:59;;;;;;;16.45;14.73;;;;;;;21.90;87.36;100160.53;1784896;80;20967;-91
2022/08/18 04:17:25;;;;;;;16.42;14.80;;;;;;;21.98;86.97;100166.31;1785852;80;20971;-92
2022/08/18 04:19:53;;;;;;;16.27;14.73;;;;;;;22.06;86.71;100166.27;1787018;80;21030;-92
2022/08/18 04:22:36;;;;;;;16.30;14.80;;;;;;;22.14;86.50;100162.20;1756062;78;20920;-93
2022/08/18 04:25:03;;;;;;;15.63;14.28;;;;;;;22.23;86.32;100166.16;1784608;78;21138;-92
2022/08/18 04:27:32;;;;;;;17.20;15.35;;;;;;;22.34;85.95;100160.39;1787055;80;21448;-90
2022/08/18 04:30:00;;;;;;;17.00;15.25;;;;;;;22.45;85.59;100161.28;1786535;80;21015;-92
2022/08/18 04:32:31;;;;;;;18.35;15.43;;;;;;;22.56;85.00;100158.17;1786641;80;21054;-93
2022/08/18 04:34:58;;;;;;;19.00;15.75;;;;;;;22.72;84.08;100163.04;1786719;79;20979;-94
2022/08/18 04:37:26;;;;;;;20.25;15.63;;;;;;;22.85;83.38;100157.89;1786779;79;21216;-94
2022/08/18 04:39:53;;;;;;;20.65;14.70;;;;;;;23.00;82.91;100158.45;1786861;78;20896;-94
2022/08/18 04:42:20;;;;;;;20.97;15.23;;;;;;;23.14;82.62;100157.61;1786841;80;20931;-94
2022/08/18 04:44:47;;;;;;;18.20;15.28;;;;;;;23.28;82.25;100157.30;1786953;80;20912;-95
2022/08/18 04:47:16;;;;;;;17.23;15.25;;;;;;;23.41;82.36;100154.78;1787130;80;20896;-93
2022/08/18 04:49:44;;;;;;;18.57;16.23;;;;;;;23.57;82.04;100159.09;1786735;79;21232;-94
2022/08/18 04:54:59;;;;;;;19.23;14.53;;;;;;;23.91;81.35;100155.77;1786288;79;20991;-92
2022/08/18 04:57:32;;;;;;;19.15;15.05;;;;;;;24.13;80.61;100151.76;1787016;80;20892;-93
2022/08/18 04:59:58;;;;;;;17.17;15.25;;;;;;;24.33;80.39;100154.09;1757733;80;21034;-93
2022/08/18 05:02:25;;;;;;;16.87;15.18;;;;;;;24.53;79.48;100153.46;1786594;80;21239;-91
2022/08/18 05:04:53;;;;;;;16.17;13.62;;;;;;;24.74;79.07;100156.06;1786064;80;20944;-92
2022/08/18 05:07:27;;;;;;;15.35;13.68;;;;;;;25.08;77.97;100157.61;1785966;80;20955;-95
2022/08/18 05:09:54;;;;;;;17.85;13.50;;;;;;;25.59;76.82;100148.69;1755546;80;20869;-92
2022/08/18 05:12:21;;;;;;;18.85;14.83;;;;;;;26.30;74.54;100155.95;1787061;80;20967;-92
2022/08/18 05:14:49;;;;;;;16.57;14.10;;;;;;;27.02;71.95;100164.48;1786261;80;21880;-92
2022/08/18 05:17:16;;;;;;;17.00;13.10;;;;;;;27.74;69.48;100156.86;1785901;79;20876;-92
2022/08/18 05:19:45;;;;;;;14.30;12.33;;;;;;;28.45;67.56;100155.75;1785635;80;20951;-92
2022/08/18 05:22:18;;;;;;;17.17;13.78;;;;;;;29.09;64.35;100158.58;1785655;80;20912;-93
2022/08/18 05:24:43;;;;;;;17.02;13.43;;;;;;;29.70;61.92;100158.67;1786171;80;20902;-92
2022/08/18 05:27:12;;;;;;;17.95;13.78;;;;;;;30.30;60.22;100157.25;1785686;80;21262;-93
2022/08/18 05:29:40;;;;;;;16.42;13.48;;;;;;;30.81;57.82;100155.45;1784634;80;20960;-92
2022/08/18 05:32:06;;;;;;;16.87;13.72;;;;;;;31.28;56.54;100152.16;1784655;80;20884;-93
2022/08/18 05:34:34;;;;;;;20.55;14.93;;;;;;;31.71;55.00;100150.83;1754801;80;20923;-91
2022/08/18 05:37:26;;;;;;;17.80;14.68;;;;;;;32.17;53.56;100141.31;1785542;80;21484;-92
2022/08/18 05:40:01;;;;;;;16.52;13.93;;;;;;;32.60;52.28;100144.73;1786972;79;21195;-91
2022/08/18 05:42:32;;;;;;;12.00;10.35;;;;;;;33.04;50.61;100151.58;1787137;79;20849;-91
2022/08/18 05:44:59;;;;;;;14.03;11.63;;;;;;;33.40;48.26;100152.03;1785850;79;20892;-91
2022/08/18 05:47:28;;;;;;;13.10;9.25;;;;;;;33.68;47.28;100150.71;1785702;80;20936;-91
2022/08/18 05:49:57;;;;;;;11.70;9.50;;;;;;;33.98;46.65;100146.10;1784002;79;20924;-91
2022/08/18 05:52:41;;;;;;;13.00;10.20;;;;;;;34.25;45.23;100149.61;1778497;80;21101;-91
2022/08/18 05:58:30;;;;;;;11.40;10.18;;;;;;;34.82;43.91;100150.83;1721965;82;20978;-90
2022/08/18 06:01:01;;;;;;;11.53;10.43;;;;;;;35.06;42.90;100146.28;1719334;83;20922;-90
2022/08/18 06:03:33;;;;;;;12.53;10.90;;;;;;;35.31;43.11;100147.49;1720401;83;21069;-91
2022/08/18 06:06:04;;;;;;;14.33;10.72;;;;;;;35.56;43.08;100149.48;1721665;82;21768;-92
2022/08/18 06:08:36;;;;;;;18.70;12.95;;;;;;;35.79;42.62;100148.17;1721265;82;21076;-92
2022/08/18 06:11:02;;;;;;;15.03;12.18;;;;;;;36.06;42.37;100146.55;1721697;83;20942;-91
2022/08/18 06:13:35;;;;;;;17.85;12.73;;;;;;;36.34;41.69;100147.93;1721024;83;20926;-90
2022/08/18 06:16:17;;;;;;;12.73;11.15;;;;;;;36.61;41.18;100150.36;1721135;82;20852;-91
2022/08/18 06:19:05;;;;;;;13.05;11.80;;;;;;;36.88;40.91;100145.90;1712503;83;21110;-92
2022/08/18 06:21:55;;;;;;;14.00;11.90;;;;;;;37.16;40.24;100153.22;1696751;83;21088;-91
2022/08/18 06:24:48;;;;;;;16.97;12.88;;;;;;;37.41;40.01;100145.97;1721241;83;21379;-91
2022/08/18 06:27:38;;;;;;;20.52;14.40;;;;;;;37.56;39.29;100147.83;1721012;83;20922;-91
2022/08/18 06:30:18;;;;;;;23.38;15.30;;;;;;;37.65;37.25;100144.20;1720660;82;20918;-90
2022/08/18 06:33:28;;;;;;;17.95;15.08;;;;;;;37.68;36.96;100146.91;1720255;82;22049;-93
2022/08/18 06:36:07;;;;;;;21.15;15.28;;;;;;;37.83;36.76;100152.28;1776607;80;20935;-91
2022/08/18 06:39:14;;;;;;;17.10;13.72;;;;;;;38.05;35.86;100155.16;1777197;80;21401;-92
2022/08/18 06:41:47;;;;;;;15.45;13.85;;;;;;;38.22;35.43;100151.45;1776771;80;20936;-91
2022/08/18 06:44:45;;;;;;;13.95;12.50;;;;;;;38.40;35.07;100146.33;1777571;80;20964;-92
2022/08/18 06:47:25;;;;;;;13.70;12.30;;;;;;;38.46;34.71;100155.58;1778798;80;20983;-92
2022/08/18 06:50:05;;;;;;;15.13;13.70;;;;;;;38.58;34.36;100151.12;1777813;79;20942;-91
2022/08/18 06:52:37;;;;;;;13.95;12.63;;;;;;;38.67;34.23;100155.41;1774516;80;20904;-91
2022/08/18 06:55:12;;;;;;;14.87;12.68;;;;;;;38.75;34.74;100149.27;1778741;79;20920;-90
2022/08/18 06:57:54;;;;;;;16.42;13.15;;;;;;;38.87;34.62;100148.31;1778019;80;20908;-91
2022/08/18 07:00:25;;;;;;;14.00;12.43;;;;;;;39.00;33.38;100155.05;1773045;80;21300;-90
2022/08/18 07:02:59;;;;;;;;;;;;;;;39.03;33.00;100153.08;1778889;80;21084;-93
2022/08/18 07:05:31;;;;;;;14.87;13.55;;;;;;;39.08;32.97;100151.63;1776312;80;20092;-91
2022/08/18 07:08:30;;;;;;;16.65;13.55;;;;;;;39.07;33.43;100154.69;1776307;80;20960;-91
2022/08/18 07:11:19;;;;;;;13.95;12.55;;;;;;;39.15;33.00;100154.86;1775025;80;20860;-89
2022/08/18 07:13:48;;;;;;;17.62;13.32;;;;;;;39.02;33.67;100145.97;1775998;80;21246;-88
2022/08/18 07:16:31;;;;;;;18.40;14.33;;;;;;;38.91;33.98;100145.25;1777728;80;20845;-90
2022/08/18 07:19:13;;;;;;;14.38;12.65;;;;;;;38.98;34.07;100142.19;1776308;80;20948;-91
2022/08/18 07:21:40;;;;;;;14.90;12.63;;;;;;;38.84;34.01;100143.95;1776163;80;20944;-90
2022/08/18 07:24:21;;;;;;;15.03;13.53;;;;;;;38.56;34.47;100147.84;1776433;80;21050;-94
2022/08/18 07:27:07;;;;;;;16.95;14.45;;;;;;;38.40;33.86;100143.58;1772629;80;21363;-93
2022/08/18 07:29:39;;;;;;;15.38;13.62;;;;;;;38.28;35.05;100142.05;1775648;80;20892;-91
2022/08/18 07:32:17;;;;;;;16.45;13.50;;;;;;;38.27;35.15;100134.95;1772696;80;21398;-92
2022/08/18 07:34:48;;;;;;;17.00;15.18;;;;;;;38.12;35.38;100142.75;1776205;80;20944;-90
2022/08/18 07:37:26;;;;;;;18.50;16.07;;;;;;;37.86;35.62;100139.38;1777725;80;20924;-92
2022/08/18 07:40:05;;;;;;;16.48;14.30;;;;;;;37.52;35.94;100143.44;1778407;80;22026;-89
2022/08/18 07:42:59;;;;;;;16.65;15.03;;;;;;;37.37;36.64;100134.77;1776721;79;20912;-92
2022/08/18 07:45:41;;;;;;;18.25;15.68;;;;;;;37.29;37.36;100133.45;1778116;80;21360;-92
2022/08/18 07:48:15;;;;;;;19.55;16.50;;;;;;;36.96;37.38;100136.88;1776544;80;21047;-92
2022/08/18 07:50:53;;;;;;;16.12;14.47;;;;;;;36.66;37.64;100134.50;1779355;80;20932;-91
2022/08/18 07:53:50;;;;;;;14.70;13.38;;;;;;;36.33;37.74;100135.91;1784325;80;21892;-93
2022/08/18 07:57:01;;;;;;;17.62;14.75;;;;;;;35.93;37.64;100137.02;1784041;80;21302;-90
2022/08/18 07:59:43;;;;;;;17.07;15.32;;;;;;;35.50;38.83;100139.09;1733804;80;20975;-93
2022/08/18 08:02:27;;;;;;;14.85;13.50;;;;;;;35.18;40.69;100129.20;1784433;80;20959;-91
2022/08/18 08:05:18;;;;;;;15.53;13.95;;;;;;;35.21;40.14;100131.38;1785773;80;20981;-91
2022/08/18 08:07:57;;;;;;;15.83;12.75;;;;;;;35.53;39.45;100128.19;1785326;80;20912;-93
2022/08/18 08:10:30;;;;;;;14.47;12.98;;;;;;;35.98;38.91;100121.18;1784774;80;21262;-92
2022/08/18 08:13:14;;;;;;;13.05;11.60;;;;;;;36.48;38.38;100123.03;1785614;80;20872;-92
2022/08/18 08:16:07;;;;;;;11.43;10.43;;;;;;;36.93;36.22;100117.72;1786939;80;20983;-93
2022/08/18 08:18:40;;;;;;;14.45;12.45;;;;;;;37.29;35.68;100115.67;1786939;80;20944;-92
2022/08/18 08:21:17;;;;;;;16.57;12.10;;;;;;;37.32;36.13;100115.09;1787337;78;21234;-91
2022/08/18 08:24:04;;;;;;;15.15;12.33;;;;;;;37.05;36.38;100114.13;1785948;80;20932;-91
2022/08/18 08:26:59;;;;;;;13.48;12.25;;;;;;;36.60;36.92;100109.13;1785474;80;20923;-92
2022/08/18 08:29:43;;;;;;;12.95;11.63;;;;;;;36.07;37.51;100111.34;1785856;80;20900;-89
2022/08/18 08:32:13;;;;;;;12.68;11.28;;;;;;;35.48;38.49;100116.72;1785711;80;21014;-90
2022/08/18 08:34:50;;;;;;;14.68;12.33;;;;;;;35.08;39.68;100119.58;1717736;82;21102;-91
2022/08/18 08:37:29;;;;;;;14.50;12.03;;;;;;;34.78;40.23;100113.48;1747591;82;20873;-91
2022/08/18 08:39:59;;;;;;;14.50;12.33;;;;;;;34.44;41.20;100109.70;1747378;82;20893;-90
2022/08/18 08:43:01;;;;;;;13.58;12.23;;;;;;;34.13;41.96;100104.08;1784859;80;21390;-92
2022/08/18 08:45:34;;;;;;;13.68;12.33;;;;;;;33.88;42.72;100102.47;1784887;80;21072;-92
2022/08/18 08:48:10;;;;;;;16.48;14.07;;;;;;;33.53;43.31;100105.11;1785125;80;21139;-93
2022/08/18 08:51:00;;;;;;;13.98;12.65;;;;;;;33.54;42.99;100106.77;1781889;80;20904;-93
2022/08/18 08:53:37;;;;;;;11.63;9.80;;;;;;;33.32;43.05;100106.81;1776003;80;20932;-92
2022/08/18 08:56:16;;;;;;;11.70;9.93;;;;;;;33.39;43.06;100103.34;1776432;80;20881;-92
2022/08/18 08:58:50;;;;;;;14.05;11.00;;;;;;;33.69;42.82;100100.69;1775760;80;21464;-92
2022/08/18 09:01:38;;;;;;;13.10;9.63;;;;;;;34.21;41.84;100102.76;1775792;80;21252;-92
2022/08/18 09:04:16;;;;;;;12.20;10.50;;;;;;;34.77;40.51;100105.02;1776062;80;20865;-91
2022/08/18 09:07:04;;;;;;;10.93;9.73;;;;;;;34.93;39.84;100101.29;1775832;80;20931;-92
2022/08/18 09:09:54;;;;;;;14.65;12.73;;;;;;;34.99;39.46;100098.02;1776081;80;20936;-92
2022/08/18 09:12:47;;;;;;;15.18;12.07;;;;;;;35.13;39.45;100099.20;1775975;80;20925;-94
2022/08/18 09:15:57;;;;;;;16.48;15.00;;;;;;;35.40;38.95;100100.36;1776416;80;21259;-90
2022/08/18 09:18:49;;;;;;;12.10;10.88;;;;;;;35.72;38.39;100091.70;1775972;80;20881;-90
2022/08/18 09:21:34;;;;;;;11.30;9.87;;;;;;;35.83;38.69;100090.61;1776252;80;21406;-92
2022/08/18 09:24:24;;;;;;;13.85;10.68;;;;;;;35.77;38.23;100092.50;1776161;80;20959;-92
2022/08/18 09:27:03;;;;;;;12.23;11.05;;;;;;;35.86;38.11;100090.05;1749924;80;20955;-92
2022/08/18 09:29:51;;;;;;;10.82;9.58;;;;;;;35.92;37.53;100099.88;1761079;80;21750;-93
2022/08/18 09:32:24;;;;;;;10.45;9.43;;;;;;;35.90;37.40;100100.14;1777788;80;20896;-92
2022/08/18 09:34:59;;;;;;;11.70;10.30;;;;;;;35.81;37.07;100100.97;1775970;80;20991;-92
2022/08/18 09:44:09;;;;;;;12.28;9.75;;;;;;;35.66;37.13;100091.70;1776410;80;21391;-93
2022/08/18 09:46:49;;;;;;;10.45;9.35;;;;;;;35.51;37.39;100099.84;1776365;80;21003;-92
2022/08/18 09:49:29;;;;;;;15.13;9.15;;;;;;;35.27;38.17;100093.51;1777116;80;20913;-92
2022/08/18 09:51:59;;;;;;;13.15;8.93;;;;;;;35.27;38.61;100092.14;1783502;80;20900;-90
2022/08/18 09:54:29;;;;;;;10.18;9.10;;;;;;;35.18;38.47;100085.59;1782316;78;20829;-89
2022/08/18 09:57:01;;;;;;;11.10;8.88;;;;;;;35.12;38.63;100087.17;1785167;79;21207;-93
2022/08/18 09:59:48;;;;;;;14.03;9.20;;;;;;;35.20;38.79;100082.59;1784349;80;21306;-92
2022/08/18 10:02:36;;;;;;;9.95;8.50;;;;;;;35.36;39.08;100086.17;1784337;80;20904;-93
2022/08/18 10:06:43;;;;;;;10.40;8.30;;;;;;;35.36;38.28;100080.72;1854591;77;22645;-94
2022/08/18 10:09:37;;;;;;;9.30;8.40;;;;;;;35.20;38.56;100081.23;1826709;78;20880;-91
2022/08/18 10:12:32;;;;;;;9.90;8.98;;;;;;;35.14;38.53;100075.48;1826465;78;21237;-92
2022/08/18 10:15:07;;;;;;;9.40;8.38;;;;;;;35.11;39.34;100080.06;1794960;78;20884;-92
2022/08/18 10:18:11;;;;;;;12.43;8.50;;;;;;;35.01;39.55;100072.14;1813927;78;20927;-91
2022/08/18 10:21:16;;;;;;;10.10;8.95;;;;;;;34.85;39.65;100071.27;1827311;78;20928;-93
2022/08/18 10:23:58;;;;;;;9.13;8.23;;;;;;;35.01;39.81;100061.23;1826251;78;21365;-93
2022/08/18 10:26:37;;;;;;;8.43;7.62;;;;;;;35.12;38.25;100059.91;1826680;78;21107;-94
2022/08/18 10:29:25;;;;;;;8.65;7.87;;;;;;;35.38;38.09;100059.45;1826538;78;20916;-94
2022/08/18 10:32:00;;;;;;;9.18;8.38;;;;;;;35.69;38.02;100054.31;1827377;78;20860;-94
2022/08/18 10:34:49;;;;;;;8.78;8.03;;;;;;;36.09;37.48;100054.00;1827422;78;20852;-93
2022/08/18 10:37:25;;;;;;;9.50;8.70;;;;;;;36.50;36.60;100058.02;1827135;78;20923;-92
2022/08/18 10:39:58;;;;;;;9.53;8.70;;;;;;;36.90;35.66;100051.33;1828308;78;21400;-90
2022/08/18 10:42:35;;;;;;;9.48;8.45;;;;;;;37.20;35.21;100064.57;1826767;78;20955;-90
2022/08/18 10:45:24;;;;;;;8.68;7.72;;;;;;;37.48;34.50;100056.98;1826887;78;20868;-93
2022/08/18 10:48:13;;;;;;;10.75;9.85;;;;;;;37.69;34.35;100061.80;1826845;78;20891;-91
2022/08/18 10:51:03;;;;;;;17.50;15.95;;;;;;;37.95;34.16;100059.66;1827901;78;20907;-93
2022/08/18 10:53:54;;;;;;;11.00;9.98;;;;;;;38.27;33.29;100056.08;1828830;78;21129;-92
2022/08/18 10:56:34;;;;;;;9.65;8.75;;;;;;;38.20;32.46;100061.90;1829406;78;21072;-92
2022/08/18 10:59:40;;;;;;;12.10;9.25;;;;;;;38.22;32.98;100058.32;1827834;78;21298;-93
2022/08/18 11:02:56;;;;;;;10.08;9.13;;;;;;;38.28;32.75;100061.80;1827073;78;21017;-94
2022/08/18 11:05:24;;;;;;;16.67;11.30;;;;;;;38.48;32.64;100057.48;1784225;78;20899;-92
2022/08/18 11:08:05;;;;;;;14.55;12.98;;;;;;;38.44;31.90;100063.81;1782484;80;21812;-95
2022/08/18 11:10:47;;;;;;;12.33;11.03;;;;;;;38.23;32.72;100059.94;1782151;80;20900;-93
2022/08/18 11:13:42;;;;;;;10.75;9.78;;;;;;;37.95;32.38;100062.39;1782143;80;20896;-92
2022/08/18 11:16:52;;;;;;;10.80;9.78;;;;;;;37.49;33.04;100061.37;1783393;80;20897;-93
2022/08/18 11:19:21;;;;;;;10.53;9.43;;;;;;;37.19;33.22;100059.66;1815049;79;20848;-93
2022/08/18 11:21:49;;;;;;;13.03;11.85;;;;;;;37.10;33.51;100053.16;1793252;79;21302;-92
2022/08/18 11:24:25;;;;;;;12.37;10.03;;;;;;;37.20;33.36;100051.73;1815525;79;21041;-92
2022/08/18 11:27:08;;;;;;;9.33;8.53;;;;;;;37.33;32.93;100057.94;1814498;79;20959;-92
2022/08/18 11:29:40;;;;;;;12.23;8.78;;;;;;;37.49;33.04;100057.83;1789926;79;20923;-91
2022/08/18 11:32:17;;;;;;;9.73;8.88;;;;;;;37.64;32.81;100057.74;1814537;79;21036;-92
2022/08/18 11:34:54;;;;;;;9.60;8.60;;;;;;;37.70;32.67;100057.94;1780433;80;21295;-93
2022/08/18 11:37:42;;;;;;;9.93;7.83;;;;;;;37.77;32.62;100057.61;1780319;80;20849;-93
2022/08/18 11:40:40;;;;;;;11.35;10.35;;;;;;;37.75;32.67;100059.81;1781834;78;21381;-92
2022/08/18 11:43:26;;;;;;;16.10;14.50;;;;;;;37.65;32.73;100057.99;1781670;80;20864;-94
2022/08/18 11:46:00;;;;;;;12.85;11.05;;;;;;;37.46;32.91;100055.09;1781608;80;20896;-92
2022/08/18 11:48:43;;;;;;;8.58;7.15;;;;;;;37.20;33.48;100054.47;1781286;80;21891;-91
2022/08/18 11:51:30;;;;;;;14.25;10.70;;;;;;;36.87;33.40;100055.44;1763785;80;20912;-94
2022/08/18 11:54:17;;;;;;;8.63;7.62;;;;;;;36.46;33.67;100056.12;1781412;80;20927;-92
2022/08/18 11:56:44;;;;;;;7.90;6.28;;;;;;;35.94;34.45;100050.48;1780747;80;20956;-92
2022/08/18 11:59:34;;;;;;;8.28;6.28;;;;;;;35.32;35.31;100052.34;1781609;80;21026;-92
2022/08/18 12:02:01;;;;;;;7.05;6.37;;;;;;;34.78;36.02;100052.99;1814469;79;21095;-91
2022/08/18 12:04:41;;;;;;;8.30;7.45;;;;;;;34.31;37.01;100049.75;1814613;79;21326;-93
2022/08/18 12:07:16;;;;;;;7.17;6.47;;;;;;;33.95;37.98;100050.02;1805141;79;20888;-92
2022/08/18 12:09:50;;;;;;;7.78;7.03;;;;;;;33.56;38.86;100041.52;1776789;79;20932;-93
2022/08/18 12:12:29;;;;;;;9.70;8.83;;;;;;;33.24;39.79;100051.83;1748323;82;20979;-91